sensor_id;sensor_type;location;lat;lon;timestamp;pressure;altitude;pressure_sealevel;temperature;humidity
6514;BME280;3290;47.716;9.070;2024-01-25T00:01:11;98238.09;;;11.68;100.00
6514;BME280;3290;47.716;9.070;2024-01-25T00:03:37;98228.09;;;11.78;100.00
6514;BME280;3290;47.716;9.070;2024-01-25T00:06:02;98233.09;;;11.53;100.00
6514;BME280;3290;47.716;9.070;2024-01-25T00:08:28;98231.69;;;11.77;100.00
6514;BME280;3290;47.716;9.070;2024-01-25T00:10:53;98225.94;;;11.26;100.00
6514;BME280;3290;47.716;9.070;2024-01-25T00:13:18;98219.97;;;11.11;100.00
6514;BME280;3290;47.716;9.070;2024-01-25T00:15:44;98204.16;;;11.25;100.00
6514;BME280;3290;47.716;9.070;2024-01-25T00:18:09;98208.97;;;11.43;100.00
6514;BME280;3290;47.716;9.070;2024-01-25T00:20:35;98209.63;;;11.45;100.00
6514;BME280;3290;47.716;9.070;2024-01-25T00:23:00;98207.25;;;11.50;100.00
6514;BME280;3290;47.716;9.070;2024-01-25T00:25:26;98209.63;;;11.45;100.00
6514;BME280;3290;47.716;9.070;2024-01-25T00:27:52;98215.00;;;11.22;100.00
6514;BME280;3290;47.716;9.070;2024-01-25T00:30:18;98219.06;;;11.25;100.00
6514;BME280;3290;47.716;9.070;2024-01-25T00:32:43;98228.81;;;11.10;100.00
6514;BME280;3290;47.716;9.070;2024-01-25T00:35:09;98227.66;;;10.98;100.00
6514;BME280;3290;47.716;9.070;2024-01-25T00:37:36;98227.88;;;11.18;100.00
6514;BME280;3290;47.716;9.070;2024-01-25T00:40:02;98215.97;;;11.36;100.00
6514;BME280;3290;47.716;9.070;2024-01-25T00:42:29;98220.69;;;11.26;100.00
6514;BME280;3290;47.716;9.070;2024-01-25T00:44:55;98217.41;;;11.59;100.00
6514;BME280;3290;47.716;9.070;2024-01-25T00:47:21;98227.56;;;11.62;100.00
6514;BME280;3290;47.716;9.070;2024-01-25T00:49:47;98223.00;;;11.50;100.00
6514;BME280;3290;47.716;9.070;2024-01-25T00:52:13;98231.94;;;11.41;100.00
6514;BME280;3290;47.716;9.070;2024-01-25T00:54:39;98223.81;;;11.50;100.00
6514;BME280;3290;47.716;9.070;2024-01-25T00:57:05;98224.34;;;11.66;100.00
6514;BME280;3290;47.716;9.070;2024-01-25T00:59:31;98230.44;;;11.46;100.00
6514;BME280;3290;47.716;9.070;2024-01-25T01:01:58;98222.56;;;11.32;100.00
6514;BME280;3290;47.716;9.070;2024-01-25T01:04:24;98221.28;;;11.07;100.00
6514;BME280;3290;47.716;9.070;2024-01-25T01:06:49;98217.53;;;11.30;100.00
6514;BME280;3290;47.716;9.070;2024-01-25T01:09:15;98217.53;;;11.30;100.00
6514;BME280;3290;47.716;9.070;2024-01-25T01:11:40;98219.41;;;11.36;100.00
6514;BME280;3290;47.716;9.070;2024-01-25T01:14:06;98219.81;;;11.19;100.00
6514;BME280;3290;47.716;9.070;2024-01-25T01:16:32;98217.97;;;10.99;100.00
6514;BME280;3290;47.716;9.070;2024-01-25T01:18:58;98229.03;;;10.94;100.00
6514;BME280;3290;47.716;9.070;2024-01-25T01:21:35;98220.13;;;11.10;100.00
6514;BME280;3290;47.716;9.070;2024-01-25T01:24:00;98208.44;;;11.12;100.00
6514;BME280;3290;47.716;9.070;2024-01-25T01:26:26;98195.59;;;11.17;100.00
6514;BME280;3290;47.716;9.070;2024-01-25T01:28:51;98199.50;;;11.07;100.00
6514;BME280;3290;47.716;9.070;2024-01-25T01:31:17;98198.31;;;11.09;100.00
6514;BME280;3290;47.716;9.070;2024-01-25T01:33:42;98205.16;;;11.24;100.00
6514;BME280;3290;47.716;9.070;2024-01-25T01:36:07;98205.81;;;11.12;100.00
6514;BME280;3290;47.716;9.070;2024-01-25T01:38:33;98211.19;;;11.04;100.00
6514;BME280;3290;47.716;9.070;2024-01-25T01:40:58;98207.75;;;11.04;100.00
6514;BME280;3290;47.716;9.070;2024-01-25T01:43:24;98204.09;;;11.19;100.00
6514;BME280;3290;47.716;9.070;2024-01-25T01:45:49;98208.56;;;11.25;100.00
6514;BME280;3290;47.716;9.070;2024-01-25T01:48:16;98204.72;;;11.42;100.00
6514;BME280;3290;47.716;9.070;2024-01-25T01:50:43;98210.03;;;11.27;100.00
6514;BME280;3290;47.716;9.070;2024-01-25T01:53:10;98206.09;;;11.17;100.00
6514;BME280;3290;47.716;9.070;2024-01-25T01:55:36;98212.13;;;11.38;100.00
6514;BME280;3290;47.716;9.070;2024-01-25T01:58:01;98212.88;;;11.47;100.00
6514;BME280;3290;47.716;9.070;2024-01-25T02:00:29;98214.59;;;11.60;100.00
6514;BME280;3290;47.716;9.070;2024-01-25T02:02:55;98205.25;;;11.52;100.00
6514;BME280;3290;47.716;9.070;2024-01-25T02:05:23;98203.84;;;11.35;100.00
6514;BME280;3290;47.716;9.070;2024-01-25T02:07:49;98198.84;;;11.19;100.00
6514;BME280;3290;47.716;9.070;2024-01-25T02:10:14;98203.56;;;11.09;100.00
6514;BME280;3290;47.716;9.070;2024-01-25T02:12:39;98189.91;;;11.34;100.00
6514;BME280;3290;47.716;9.070;2024-01-25T02:15:05;98201.34;;;11.06;100.00
6514;BME280;3290;47.716;9.070;2024-01-25T02:17:31;98200.06;;;11.23;100.00
6514;BME280;3290;47.716;9.070;2024-01-25T02:19:56;98198.47;;;11.43;100.00
6514;BME280;3290;47.716;9.070;2024-01-25T02:22:21;98196.94;;;11.34;100.00
6514;BME280;3290;47.716;9.070;2024-01-25T02:24:47;98191.72;;;11.55;100.00
6514;BME280;3290;47.716;9.070;2024-01-25T02:27:12;98196.09;;;11.27;100.00
6514;BME280;3290;47.716;9.070;2024-01-25T02:29:37;98194.31;;;11.34;100.00
6514;BME280;3290;47.716;9.070;2024-01-25T02:32:04;98187.34;;;11.20;100.00
6514;BME280;3290;47.716;9.070;2024-01-25T02:34:29;98185.47;;;11.14;100.00
6514;BME280;3290;47.716;9.070;2024-01-25T02:36:54;98189.72;;;11.36;100.00
6514;BME280;3290;47.716;9.070;2024-01-25T02:39:20;98195.13;;;11.49;100.00
6514;BME280;3290;47.716;9.070;2024-01-25T02:41:45;98177.50;;;11.22;100.00
6514;BME280;3290;47.716;9.070;2024-01-25T02:44:11;98184.09;;;11.18;100.00
6514;BME280;3290;47.716;9.070;2024-01-25T02:46:36;98181.66;;;11.37;100.00
6514;BME280;3290;47.716;9.070;2024-01-25T02:49:03;98179.28;;;11.42;100.00
6514;BME280;3290;47.716;9.070;2024-01-25T02:51:28;98192.34;;;11.36;100.00
6514;BME280;3290;47.716;9.070;2024-01-25T02:53:54;98188.97;;;11.42;100.00
6514;BME280;3290;47.716;9.070;2024-01-25T02:56:19;98178.41;;;11.35;100.00
6514;BME280;3290;47.716;9.070;2024-01-25T02:58:44;98175.91;;;11.27;100.00
6514;BME280;3290;47.716;9.070;2024-01-25T03:01:10;98178.09;;;11.24;100.00
6514;BME280;3290;47.716;9.070;2024-01-25T03:03:35;98180.59;;;11.32;100.00
6514;BME280;3290;47.716;9.070;2024-01-25T03:06:02;98188.22;;;11.48;100.00
6514;BME280;3290;47.716;9.070;2024-01-25T03:08:27;98172.78;;;11.38;100.00
6514;BME280;3290;47.716;9.070;2024-01-25T03:10:53;98173.22;;;11.42;100.00
6514;BME280;3290;47.716;9.070;2024-01-25T03:13:18;98175.22;;;11.40;100.00
6514;BME280;3290;47.716;9.070;2024-01-25T03:15:44;98178.75;;;11.47;100.00
6514;BME280;3290;47.716;9.070;2024-01-25T03:18:10;98179.97;;;11.30;100.00
6514;BME280;3290;47.716;9.070;2024-01-25T03:20:36;98182.97;;;11.06;100.00
6514;BME280;3290;47.716;9.070;2024-01-25T03:23:01;98181.72;;;11.23;100.00
6514;BME280;3290;47.716;9.070;2024-01-25T03:25:28;98181.72;;;11.44;100.00
6514;BME280;3290;47.716;9.070;2024-01-25T03:27:53;98186.84;;;11.31;100.00
6514;BME280;3290;47.716;9.070;2024-01-25T03:30:18;98182.72;;;11.22;100.00
6514;BME280;3290;47.716;9.070;2024-01-25T03:32:46;98172.34;;;11.35;100.00
6514;BME280;3290;47.716;9.070;2024-01-25T03:35:11;98178.22;;;11.37;100.00
6514;BME280;3290;47.716;9.070;2024-01-25T03:37:37;98173.13;;;11.50;100.00
6514;BME280;3290;47.716;9.070;2024-01-25T03:40:02;98171.88;;;11.46;100.00
6514;BME280;3290;47.716;9.070;2024-01-25T03:42:28;98171.91;;;11.31;100.00
6514;BME280;3290;47.716;9.070;2024-01-25T03:44:54;98165.72;;;11.18;100.00
6514;BME280;3290;47.716;9.070;2024-01-25T03:47:19;98179.84;;;11.17;100.00
6514;BME280;3290;47.716;9.070;2024-01-25T03:49:45;98179.84;;;11.38;100.00
6514;BME280;3290;47.716;9.070;2024-01-25T03:52:10;98180.03;;;11.16;100.00
6514;BME280;3290;47.716;9.070;2024-01-25T03:54:36;98170.34;;;11.16;100.00
6514;BME280;3290;47.716;9.070;2024-01-25T03:57:01;98178.09;;;11.24;100.00
6514;BME280;3290;47.716;9.070;2024-01-25T03:59:26;98190.00;;;11.06;100.00
6514;BME280;3290;47.716;9.070;2024-01-25T04:01:52;98193.03;;;11.03;100.00
6514;BME280;3290;47.716;9.070;2024-01-25T04:04:18;98186.34;;;11.21;100.00
6514;BME280;3290;47.716;9.070;2024-01-25T04:06:44;98176.81;;;11.41;100.00
6514;BME280;3290;47.716;9.070;2024-01-25T04:09:12;98187.59;;;11.46;100.00
6514;BME280;3290;47.716;9.070;2024-01-25T04:11:38;98187.97;;;11.43;100.00
6514;BME280;3290;47.716;9.070;2024-01-25T04:14:04;98185.66;;;11.33;100.00
6514;BME280;3290;47.716;9.070;2024-01-25T04:16:30;98178.84;;;11.39;100.00
6514;BME280;3290;47.716;9.070;2024-01-25T04:18:55;98187.47;;;11.33;100.00
6514;BME280;3290;47.716;9.070;2024-01-25T04:21:21;98191.72;;;11.13;100.00
6514;BME280;3290;47.716;9.070;2024-01-25T04:23:47;98200.84;;;11.17;100.00
6514;BME280;3290;47.716;9.070;2024-01-25T04:26:12;98196.22;;;11.40;100.00
6514;BME280;3290;47.716;9.070;2024-01-25T04:28:37;98184.34;;;11.44;100.00
6514;BME280;3290;47.716;9.070;2024-01-25T04:31:03;98183.59;;;11.29;100.00
6514;BME280;3290;47.716;9.070;2024-01-25T04:33:29;98196.28;;;11.25;100.00
6514;BME280;3290;47.716;9.070;2024-01-25T04:35:55;98195.97;;;11.14;100.00
6514;BME280;3290;47.716;9.070;2024-01-25T04:38:21;98189.47;;;11.31;100.00
6514;BME280;3290;47.716;9.070;2024-01-25T04:40:46;98198.47;;;11.22;100.00
6514;BME280;3290;47.716;9.070;2024-01-25T04:43:11;98190.78;;;11.20;100.00
6514;BME280;3290;47.716;9.070;2024-01-25T04:45:38;98192.09;;;11.31;100.00
6514;BME280;3290;47.716;9.070;2024-01-25T04:48:03;98200.22;;;11.15;100.00
6514;BME280;3290;47.716;9.070;2024-01-25T04:50:29;98203.97;;;11.48;100.00
6514;BME280;3290;47.716;9.070;2024-01-25T04:52:54;98200.25;;;11.42;100.00
6514;BME280;3290;47.716;9.070;2024-01-25T04:55:20;98203.59;;;11.51;100.00
6514;BME280;3290;47.716;9.070;2024-01-25T04:57:46;98201.09;;;11.63;100.00
6514;BME280;3290;47.716;9.070;2024-01-25T05:00:13;98208.84;;;11.51;100.00
6514;BME280;3290;47.716;9.070;2024-01-25T05:02:38;98211.16;;;11.60;100.00
6514;BME280;3290;47.716;9.070;2024-01-25T05:05:04;98202.63;;;11.37;100.00
6514;BME280;3290;47.716;9.070;2024-01-25T05:07:29;98208.38;;;11.26;100.00
6514;BME280;3290;47.716;9.070;2024-01-25T05:09:55;98207.69;;;11.18;100.00
6514;BME280;3290;47.716;9.070;2024-01-25T05:12:20;98218.44;;;11.23;100.00
6514;BME280;3290;47.716;9.070;2024-01-25T05:14:45;98215.78;;;11.17;100.00
6514;BME280;3290;47.716;9.070;2024-01-25T05:17:11;98226.50;;;10.86;100.00
6514;BME280;3290;47.716;9.070;2024-01-25T05:19:37;98223.03;;;11.00;100.00
6514;BME280;3290;47.716;9.070;2024-01-25T05:22:02;98229.22;;;10.93;100.00
6514;BME280;3290;47.716;9.070;2024-01-25T05:24:32;98225.16;;;10.90;100.00
6514;BME280;3290;47.716;9.070;2024-01-25T05:26:57;98222.63;;;10.82;100.00
6514;BME280;3290;47.716;9.070;2024-01-25T05:29:23;98244.13;;;10.92;100.00
6514;BME280;3290;47.716;9.070;2024-01-25T05:31:48;98243.56;;;11.11;100.00
6514;BME280;3290;47.716;9.070;2024-01-25T05:34:15;98248.31;;;11.22;100.00
6514;BME280;3290;47.716;9.070;2024-01-25T05:36:40;98258.09;;;11.14;100.00
6514;BME280;3290;47.716;9.070;2024-01-25T05:39:07;98258.97;;;11.20;100.00
6514;BME280;3290;47.716;9.070;2024-01-25T05:41:32;98261.47;;;11.28;100.00
6514;BME280;3290;47.716;9.070;2024-01-25T05:43:59;98263.88;;;10.88;100.00
6514;BME280;3290;47.716;9.070;2024-01-25T05:46:25;98256.41;;;11.06;100.00
6514;BME280;3290;47.716;9.070;2024-01-25T05:48:50;98258.81;;;11.43;100.00
6514;BME280;3290;47.716;9.070;2024-01-25T05:51:15;98253.94;;;11.40;100.00
6514;BME280;3290;47.716;9.070;2024-01-25T05:53:41;98260.44;;;11.44;100.00
6514;BME280;3290;47.716;9.070;2024-01-25T05:56:06;98257.88;;;11.29;100.00
6514;BME280;3290;47.716;9.070;2024-01-25T05:58:32;98265.91;;;11.28;100.00
6514;BME280;3290;47.716;9.070;2024-01-25T06:00:57;98261.78;;;11.19;100.00
6514;BME280;3290;47.716;9.070;2024-01-25T06:03:22;98266.50;;;11.23;100.00
6514;BME280;3290;47.716;9.070;2024-01-25T06:05:48;98275.03;;;11.11;100.00
6514;BME280;3290;47.716;9.070;2024-01-25T06:08:14;98273.53;;;11.23;100.00
6514;BME280;3290;47.716;9.070;2024-01-25T06:10:39;98279.03;;;11.28;100.00
6514;BME280;3290;47.716;9.070;2024-01-25T06:13:04;98274.66;;;11.49;100.00
6514;BME280;3290;47.716;9.070;2024-01-25T06:15:30;98270.50;;;11.40;100.00
6514;BME280;3290;47.716;9.070;2024-01-25T06:17:56;98279.91;;;11.35;100.00
6514;BME280;3290;47.716;9.070;2024-01-25T06:20:22;98280.47;;;10.95;100.00
6514;BME280;3290;47.716;9.070;2024-01-25T06:22:48;98281.50;;;10.51;100.00
6514;BME280;3290;47.716;9.070;2024-01-25T06:25:13;98286.16;;;10.99;100.00
6514;BME280;3290;47.716;9.070;2024-01-25T06:27:39;98285.69;;;10.95;100.00
6514;BME280;3290;47.716;9.070;2024-01-25T06:30:04;98283.41;;;10.72;100.00
6514;BME280;3290;47.716;9.070;2024-01-25T06:32:30;98292.63;;;10.68;100.00
6514;BME280;3290;47.716;9.070;2024-01-25T06:34:56;98285.00;;;10.58;100.00
6514;BME280;3290;47.716;9.070;2024-01-25T06:37:22;98291.50;;;10.48;100.00
6514;BME280;3290;47.716;9.070;2024-01-25T06:39:47;98292.59;;;10.25;100.00
6514;BME280;3290;47.716;9.070;2024-01-25T06:42:13;98296.22;;;10.38;100.00
6514;BME280;3290;47.716;9.070;2024-01-25T06:44:38;98291.00;;;10.38;100.00
6514;BME280;3290;47.716;9.070;2024-01-25T06:47:03;98290.88;;;10.46;100.00
6514;BME280;3290;47.716;9.070;2024-01-25T06:49:29;98296.22;;;10.38;100.00
6514;BME280;3290;47.716;9.070;2024-01-25T06:51:54;98288.25;;;10.17;100.00
6514;BME280;3290;47.716;9.070;2024-01-25T06:54:20;98294.94;;;10.20;100.00
6514;BME280;3290;47.716;9.070;2024-01-25T06:56:48;98302.91;;;10.26;100.00
6514;BME280;3290;47.716;9.070;2024-01-25T06:59:16;98301.31;;;10.03;100.00
6514;BME280;3290;47.716;9.070;2024-01-25T07:01:42;98301.50;;;10.01;100.00
6514;BME280;3290;47.716;9.070;2024-01-25T07:04:07;98307.72;;;10.00;100.00
6514;BME280;3290;47.716;9.070;2024-01-25T07:06:32;98316.09;;;9.96;100.00
6514;BME280;3290;47.716;9.070;2024-01-25T07:08:58;98305.78;;;10.31;100.00
6514;BME280;3290;47.716;9.070;2024-01-25T07:11:23;98302.91;;;10.26;100.00
6514;BME280;3290;47.716;9.070;2024-01-25T07:13:49;98302.72;;;10.28;100.00
6514;BME280;3290;47.716;9.070;2024-01-25T07:16:15;98301.81;;;10.35;100.00
6514;BME280;3290;47.716;9.070;2024-01-25T07:18:40;98295.31;;;10.60;100.00
6514;BME280;3290;47.716;9.070;2024-01-25T07:21:06;98298.56;;;10.47;100.00
6514;BME280;3290;47.716;9.070;2024-01-25T07:23:33;98304.59;;;10.34;100.00
6514;BME280;3290;47.716;9.070;2024-01-25T07:25:58;98302.91;;;10.26;100.00
6514;BME280;3290;47.716;9.070;2024-01-25T07:28:24;98302.56;;;10.43;100.00
6514;BME280;3290;47.716;9.070;2024-01-25T07:30:50;98305.97;;;10.58;100.00
6514;BME280;3290;47.716;9.070;2024-01-25T07:33:16;98311.75;;;10.82;100.00
6514;BME280;3290;47.716;9.070;2024-01-25T07:35:41;98306.34;;;10.70;100.00
6514;BME280;3290;47.716;9.070;2024-01-25T07:38:11;98308.25;;;10.76;100.00
6514;BME280;3290;47.716;9.070;2024-01-25T07:40:37;98301.13;;;10.70;100.00
6514;BME280;3290;47.716;9.070;2024-01-25T07:43:02;98294.88;;;10.56;100.00
6514;BME280;3290;47.716;9.070;2024-01-25T07:45:28;98286.38;;;10.40;100.00
6514;BME280;3290;47.716;9.070;2024-01-25T07:47:53;98303.75;;;10.55;100.00
6514;BME280;3290;47.716;9.070;2024-01-25T07:50:19;98305.53;;;10.55;100.00
6514;BME280;3290;47.716;9.070;2024-01-25T07:52:44;98301.13;;;10.70;100.00
6514;BME280;3290;47.716;9.070;2024-01-25T07:55:10;98305.69;;;10.53;100.00
6514;BME280;3290;47.716;9.070;2024-01-25T07:57:35;98314.75;;;10.65;100.00
6514;BME280;3290;47.716;9.070;2024-01-25T08:00:01;98313.31;;;10.63;100.00
6514;BME280;3290;47.716;9.070;2024-01-25T08:02:26;98316.47;;;10.73;100.00
6514;BME280;3290;47.716;9.070;2024-01-25T08:04:52;98321.69;;;10.44;100.00
6514;BME280;3290;47.716;9.070;2024-01-25T08:07:18;98315.19;;;10.69;100.00
6514;BME280;3290;47.716;9.070;2024-01-25T08:09:43;98319.47;;;10.55;100.00
6514;BME280;3290;47.716;9.070;2024-01-25T08:12:08;98318.47;;;10.56;100.00
6514;BME280;3290;47.716;9.070;2024-01-25T08:14:34;98322.59;;;10.79;100.00
6514;BME280;3290;47.716;9.070;2024-01-25T08:16:59;98329.03;;;10.63;100.00
6514;BME280;3290;47.716;9.070;2024-01-25T08:19:25;98333.66;;;10.61;100.00
6514;BME280;3290;47.716;9.070;2024-01-25T08:21:50;98325.03;;;10.38;100.00
6514;BME280;3290;47.716;9.070;2024-01-25T08:24:16;98324.66;;;10.41;100.00
6514;BME280;3290;47.716;9.070;2024-01-25T08:26:41;98329.38;;;10.45;100.00
6514;BME280;3290;47.716;9.070;2024-01-25T08:29:06;98339.69;;;10.61;100.00
6514;BME280;3290;47.716;9.070;2024-01-25T08:31:32;98341.59;;;10.67;100.00
6514;BME280;3290;47.716;9.070;2024-01-25T08:33:57;98343.78;;;10.78;100.00
6514;BME280;3290;47.716;9.070;2024-01-25T08:36:23;98340.34;;;11.06;100.00
6514;BME280;3290;47.716;9.070;2024-01-25T08:38:49;98341.72;;;11.23;100.00
6514;BME280;3290;47.716;9.070;2024-01-25T08:41:15;98340.34;;;11.06;100.00
6514;BME280;3290;47.716;9.070;2024-01-25T08:43:41;98340.34;;;11.06;100.00
6514;BME280;3290;47.716;9.070;2024-01-25T08:46:07;98341.78;;;10.94;100.00
6514;BME280;3290;47.716;9.070;2024-01-25T08:48:33;98343.38;;;10.95;100.00
6514;BME280;3290;47.716;9.070;2024-01-25T08:50:58;98338.97;;;10.96;100.00
6514;BME280;3290;47.716;9.070;2024-01-25T08:53:24;98349.91;;;10.99;100.00
6514;BME280;3290;47.716;9.070;2024-01-25T08:55:53;98343.50;;;11.02;100.00
6514;BME280;3290;47.716;9.070;2024-01-25T08:58:19;98352.53;;;10.99;100.00
6514;BME280;3290;47.716;9.070;2024-01-25T09:00:45;98349.28;;;11.12;100.00
6514;BME280;3290;47.716;9.070;2024-01-25T09:03:10;98345.88;;;11.32;100.00
6514;BME280;3290;47.716;9.070;2024-01-25T09:05:36;98353.66;;;11.40;100.00
6514;BME280;3290;47.716;9.070;2024-01-25T09:08:06;98348.16;;;11.35;100.00
6514;BME280;3290;47.716;9.070;2024-01-25T09:10:31;98351.94;;;11.47;100.00
6514;BME280;3290;47.716;9.070;2024-01-25T09:12:56;98354.75;;;11.31;100.00
6514;BME280;3290;47.716;9.070;2024-01-25T09:15:22;98350.13;;;11.33;100.00
6514;BME280;3290;47.716;9.070;2024-01-25T09:17:47;98354.50;;;11.26;100.00
6514;BME280;3290;47.716;9.070;2024-01-25T09:20:12;98354.59;;;11.18;100.00
6514;BME280;3290;47.716;9.070;2024-01-25T09:22:38;98365.34;;;11.52;100.00
6514;BME280;3290;47.716;9.070;2024-01-25T09:25:04;98362.50;;;11.88;100.00
6514;BME280;3290;47.716;9.070;2024-01-25T09:27:30;98359.88;;;11.53;100.00
6514;BME280;3290;47.716;9.070;2024-01-25T09:29:55;98363.63;;;11.30;100.00
6514;BME280;3290;47.716;9.070;2024-01-25T09:32:20;98369.97;;;11.21;100.00
6514;BME280;3290;47.716;9.070;2024-01-25T09:34:46;98366.09;;;11.03;100.00
6514;BME280;3290;47.716;9.070;2024-01-25T09:37:11;98367.16;;;11.22;100.00
6514;BME280;3290;47.716;9.070;2024-01-25T09:39:37;98368.34;;;10.91;100.00
6514;BME280;3290;47.716;9.070;2024-01-25T09:42:03;98359.22;;;10.59;100.00
6514;BME280;3290;47.716;9.070;2024-01-25T09:44:29;98370.25;;;10.69;100.00
6514;BME280;3290;47.716;9.070;2024-01-25T09:46:55;98376.50;;;10.82;100.00
6514;BME280;3290;47.716;9.070;2024-01-25T09:49:21;98372.50;;;11.29;100.00
6514;BME280;3290;47.716;9.070;2024-01-25T09:51:47;98386.81;;;11.12;100.00
6514;BME280;3290;47.716;9.070;2024-01-25T09:54:16;98381.81;;;11.17;100.00
6514;BME280;3290;47.716;9.070;2024-01-25T09:56:42;98383.19;;;11.13;100.00
6514;BME280;3290;47.716;9.070;2024-01-25T09:59:08;98380.03;;;11.46;100.00
6514;BME280;3290;47.716;9.070;2024-01-25T10:01:34;98383.59;;;11.59;100.00
6514;BME280;3290;47.716;9.070;2024-01-25T10:03:59;98384.72;;;11.22;100.00
6514;BME280;3290;47.716;9.070;2024-01-25T10:06:25;98382.22;;;11.63;100.00
6514;BME280;3290;47.716;9.070;2024-01-25T10:08:52;98386.41;;;11.44;100.00
6514;BME280;3290;47.716;9.070;2024-01-25T10:11:17;98388.47;;;11.62;100.00
6514;BME280;3290;47.716;9.070;2024-01-25T10:13:47;98389.50;;;11.82;100.00
6514;BME280;3290;47.716;9.070;2024-01-25T10:16:13;98385.50;;;11.65;100.00
6514;BME280;3290;47.716;9.070;2024-01-25T10:18:40;98389.09;;;11.64;100.00
6514;BME280;3290;47.716;9.070;2024-01-25T10:21:09;98386.22;;;11.59;100.00
6514;BME280;3290;47.716;9.070;2024-01-25T10:23:35;98385.97;;;11.26;100.00
6514;BME280;3290;47.716;9.070;2024-01-25T10:26:00;98378.97;;;11.61;100.00
6514;BME280;3290;47.716;9.070;2024-01-25T10:28:25;98380.34;;;11.43;100.00
6514;BME280;3290;47.716;9.070;2024-01-25T10:30:56;98382.06;;;11.51;100.00
6514;BME280;3290;47.716;9.070;2024-01-25T10:33:24;98376.03;;;11.07;100.00
6514;BME280;3290;47.716;9.070;2024-01-25T10:35:50;98367.16;;;11.22;100.00
6514;BME280;3290;47.716;9.070;2024-01-25T10:38:18;98373.22;;;11.23;100.00
6514;BME280;3290;47.716;9.070;2024-01-25T10:40:43;98374.28;;;11.28;100.00
6514;BME280;3290;47.716;9.070;2024-01-25T10:43:09;98361.84;;;11.86;100.00
6514;BME280;3290;47.716;9.070;2024-01-25T10:45:35;98363.22;;;11.61;100.00
6514;BME280;3290;47.716;9.070;2024-01-25T10:48:00;98359.81;;;11.47;100.00
6514;BME280;3290;47.716;9.070;2024-01-25T10:50:26;98354.44;;;11.55;100.00
6514;BME280;3290;47.716;9.070;2024-01-25T10:52:51;98345.22;;;11.44;100.00
6514;BME280;3290;47.716;9.070;2024-01-25T10:55:17;98344.22;;;11.59;100.00
6514;BME280;3290;47.716;9.070;2024-01-25T10:57:44;98344.13;;;11.88;100.00
6514;BME280;3290;47.716;9.070;2024-01-25T11:00:12;98339.72;;;11.54;100.00
6514;BME280;3290;47.716;9.070;2024-01-25T11:02:41;98338.97;;;11.80;100.00
6514;BME280;3290;47.716;9.070;2024-01-25T11:05:11;98336.88;;;11.90;100.00
6514;BME280;3290;47.716;9.070;2024-01-25T11:07:42;98328.72;;;12.27;100.00
6514;BME280;3290;47.716;9.070;2024-01-25T11:10:18;98329.72;;;11.63;100.00
6514;BME280;3290;47.716;9.070;2024-01-25T11:15:19;98320.66;;;12.35;100.00
6514;BME280;3290;47.716;9.070;2024-01-25T11:17:50;98314.63;;;12.13;100.00
6514;BME280;3290;47.716;9.070;2024-01-25T11:20:20;98307.19;;;12.17;100.00
6514;BME280;3290;47.716;9.070;2024-01-25T11:22:46;98302.94;;;12.16;100.00
6514;BME280;3290;47.716;9.070;2024-01-25T11:25:20;98292.38;;;12.37;100.00
6514;BME280;3290;47.716;9.070;2024-01-25T11:27:48;98296.59;;;12.04;100.00
6514;BME280;3290;47.716;9.070;2024-01-25T11:30:13;98290.28;;;12.53;100.00
6514;BME280;3290;47.716;9.070;2024-01-25T11:32:39;98298.47;;;11.89;100.00
6514;BME280;3290;47.716;9.070;2024-01-25T11:35:05;98306.84;;;12.26;100.00
6514;BME280;3290;47.716;9.070;2024-01-25T11:37:36;98296.81;;;12.36;100.00
6514;BME280;3290;47.716;9.070;2024-01-25T11:40:02;98297.25;;;12.39;98.79
6514;BME280;3290;47.716;9.070;2024-01-25T11:42:28;98304.69;;;12.09;100.00
6514;BME280;3290;47.716;9.070;2024-01-25T11:44:56;98286.72;;;11.85;100.00
6514;BME280;3290;47.716;9.070;2024-01-25T11:47:21;98294.00;;;11.90;100.00
6514;BME280;3290;47.716;9.070;2024-01-25T11:49:46;98292.94;;;12.05;100.00
6514;BME280;3290;47.716;9.070;2024-01-25T11:52:12;98287.19;;;11.95;100.00
6514;BME280;3290;47.716;9.070;2024-01-25T11:54:38;98288.31;;;11.86;100.00
6514;BME280;3290;47.716;9.070;2024-01-25T11:57:04;98290.94;;;12.07;100.00
6514;BME280;3290;47.716;9.070;2024-01-25T11:59:30;98280.59;;;11.99;100.00
6514;BME280;3290;47.716;9.070;2024-01-25T12:01:56;98277.97;;;11.78;100.00
6514;BME280;3290;47.716;9.070;2024-01-25T12:04:21;98278.03;;;11.85;100.00
6514;BME280;3290;47.716;9.070;2024-01-25T12:06:47;98269.19;;;12.13;100.00
6514;BME280;3290;47.716;9.070;2024-01-25T12:09:15;98278.91;;;12.19;100.00
6514;BME280;3290;47.716;9.070;2024-01-25T12:11:41;98284.03;;;11.23;100.00
6514;BME280;3290;47.716;9.070;2024-01-25T12:14:08;98273.00;;;11.90;100.00
6514;BME280;3290;47.716;9.070;2024-01-25T12:16:34;98276.94;;;12.00;100.00
6514;BME280;3290;47.716;9.070;2024-01-25T12:18:59;98272.50;;;12.28;100.00
6514;BME280;3290;47.716;9.070;2024-01-25T12:21:25;98269.31;;;11.84;100.00
6514;BME280;3290;47.716;9.070;2024-01-25T12:23:50;98274.72;;;11.97;99.38
6514;BME280;3290;47.716;9.070;2024-01-25T12:26:16;98262.47;;;11.83;99.86
6514;BME280;3290;47.716;9.070;2024-01-25T12:28:42;98258.09;;;11.90;100.00
6514;BME280;3290;47.716;9.070;2024-01-25T12:31:08;98253.41;;;11.65;100.00
6514;BME280;3290;47.716;9.070;2024-01-25T12:33:34;98237.09;;;11.97;99.59
6514;BME280;3290;47.716;9.070;2024-01-25T12:36:02;98241.78;;;12.01;97.85
6514;BME280;3290;47.716;9.070;2024-01-25T12:38:28;98247.78;;;11.68;100.00
6514;BME280;3290;47.716;9.070;2024-01-25T12:40:54;98250.53;;;11.60;100.00
6514;BME280;3290;47.716;9.070;2024-01-25T12:43:20;98255.72;;;11.54;100.00
6514;BME280;3290;47.716;9.070;2024-01-25T12:45:48;98245.22;;;12.01;100.00
6514;BME280;3290;47.716;9.070;2024-01-25T12:48:14;98250.94;;;11.84;100.00
6514;BME280;3290;47.716;9.070;2024-01-25T12:50:39;98251.72;;;11.78;100.00
6514;BME280;3290;47.716;9.070;2024-01-25T12:53:05;98241.75;;;11.95;100.00
6514;BME280;3290;47.716;9.070;2024-01-25T12:55:31;98245.06;;;11.82;100.00
6514;BME280;3290;47.716;9.070;2024-01-25T12:57:58;98244.59;;;11.72;100.00
6514;BME280;3290;47.716;9.070;2024-01-25T13:00:24;98240.84;;;11.81;100.00
6514;BME280;3290;47.716;9.070;2024-01-25T13:02:50;98236.22;;;11.83;100.00
6514;BME280;3290;47.716;9.070;2024-01-25T13:05:16;98237.97;;;11.76;100.00